Terminal Aerodrome Forecast
Issued by NWS

Home | Current Version | Previous Version | Text Only | Print | Product List | Glossary On
Versions: 1 2 3 4 5 6 7 8 9 10 11 12 13 14 15
000
FTUS43 KMPX 272339
TAFAXN
TAF
KAXN 272339Z 2800/2824 23006KT P6SM FEW250
     FM280100 00000KT P6SM FEW250
     FM280600 14005KT P6SM BKN250
     FM281400 18014G22KT P6SM SCT150 BKN250
     FM281700 18018G28KT P6SM SCT060 BKN250=

USA.gov is the U.S. government's official web portal to all federal, state and local government web resources and services.